Oceanside, CA (92049)

1:45 AM PDT on August 30, 2014 (GMT -0700)
South Oceanside/Fire Mountain | Change Station
CLOSE
Current Station
Personal Weather Station
Location: Oceanside, CA
Elevation: 121 ft
Nearby Weather Stations

Elev 121 ft 33.19 °N, 117.36 °W | Updated 23 seconds ago

Mostly Cloudy
Mostly Cloudy
66.6 °F
Feels Like 66.6 °F
N
0.0
Wind Variable Wind from North
Gusts 0.0 mph

Today
High -- | Low -- °F
--% Chance of Precip.
Yesterday
High -- | Low -- °F
Precip. -- in
6:22 AM 7:17 PM
Waxing Crescent, 20% visible
Pressure 29.82 in
Visibility 7.0 miles
Clouds Mostly Cloudy 1000 ft
Dew Point 63 °F
Humidity 89%
Rainfall 0.00 in
Snow Depth Not available.
UV 0 out of 12
Pollen 7.70 out of 12
Ozone Good
Flu Activity Not available.
SPECI KOKB 300812Z AUTO 00000KT 7SM BKN010 17/15 A2982 RMK AO2 T01720150

More Conditions Fewer Conditions

Pressure 29.82 in
Visibility 7.0 miles
Clouds Mostly Cloudy 1000 ft
Dew Point 63 °F
Humidity 89%
Rainfall 0.00 in
Snow Depth Not available.
UV 0 out of 12
Pollen 7.70 out of 12
Ozone Good
Flu Activity Not available.
SPECI KOKB 300812Z AUTO 00000KT 7SM BKN010 17/15 A2982 RMK AO2 T01720150

More Conditions Fewer Conditions

10-Day Weather Forecast

Almanac

Astronomy

Aug. 30, 2014 Rise Set
Actual Time 6:22 AM PDT 7:17 PM PDT
Civil Twilight 5:57 AM PDT 7:42 PM PDT
Nautical Twilight 5:27 AM PDT 8:12 PM PDT
Astronomical Twilight 4:56 AM PDT 8:43 PM PDT
Moon 10:58 AM PDT 10:11 PM PDT
Length of Visible Light 13h 45m
Length of Day
12h 54m
Tomorrow will be 1m 57s shorter.
Waxing Crescent, 20% of the Moon is Illuminated
Today
Waxing Crescent
Sep 2
First Quarter
Sep 8
Full
Sep 15
Last Quarter
Sep 24
New

Today's Extremes

State Highs State Lows

Community

WunderPhotos

Upload Photos

1,748,474 photos uploaded!

Nearby

Air Quality

  Air Quality AQ Index Pollutant
Yesterday Good
OZONE
Current Good
OZONE
Sunday Good
PM10
Sunday Moderate
OZONE
Sunday Good
CO
Sunday Good
NO2

Snow Depth

Station Depth Elevation
Leavitt Lake 0 in 9400 ft
Leavitt Meadows 0 in 7200 ft
Summit Meadow 1 in 9122 ft
Monitor Pass 0 in 8350 ft
Blue Lakes 0 in 8000 ft

Earthquake Activity

City Distance Mag. Time & Date
No recent earthquake activity has been reported nearby.
Minimum magnitude displayed is 2.5.

Coastal Water Temperatures

Place Temperature
La Jolla, CA 73.9 °F
San Diego, CA 73.9 °F

Nearby Weather Stations